createdAt,value
2019-04-29T00:00:13.317Z,81.00
2019-04-29T00:02:43.863Z,82.00
2019-04-29T00:05:15.337Z,82.30
2019-04-29T00:07:45.857Z,81.90
2019-04-29T00:10:19.344Z,82.60
2019-04-29T00:12:50.006Z,82.20
2019-04-29T00:15:37.414Z,82.90
2019-04-29T00:18:12.162Z,82.60
2019-04-29T00:20:44.153Z,83.40
2019-04-29T00:23:14.578Z,82.80
2019-04-29T00:25:45.243Z,82.60
2019-04-29T00:28:16.245Z,83.30
2019-04-29T00:30:47.186Z,87.00
2019-04-29T00:33:17.531Z,87.40
2019-04-29T00:35:47.980Z,86.40
2019-04-29T00:38:29.248Z,86.00
2019-04-29T00:41:03.930Z,85.80
2019-04-29T00:43:38.613Z,85.50
2019-04-29T00:46:09.308Z,84.60
2019-04-29T00:48:39.780Z,84.40
2019-04-29T00:51:10.325Z,86.70
2019-04-29T00:53:41.469Z,87.30
2019-04-29T00:56:11.817Z,86.60
2019-04-29T00:58:42.263Z,88.50
2019-04-29T01:01:14.215Z,86.70
2019-04-29T01:03:44.784Z,86.30
2019-04-29T01:06:15.221Z,86.80
2019-04-29T01:08:45.815Z,87.40
2019-04-29T01:11:16.289Z,87.40
2019-04-29T01:13:46.607Z,87.80
2019-04-29T01:16:17.019Z,87.80
2019-04-29T01:18:47.484Z,87.60
2019-04-29T01:21:19.088Z,86.80
2019-04-29T01:23:49.505Z,86.90
2019-04-29T01:26:24.474Z,86.60
2019-04-29T01:28:56.529Z,87.20
2019-04-29T01:31:28.730Z,87.60
2019-04-29T01:34:00.709Z,87.60
2019-04-29T01:36:35.660Z,88.80
2019-04-29T01:39:08.719Z,87.70
2019-04-29T01:41:40.655Z,88.00
2019-04-29T01:44:11.893Z,88.60
2019-04-29T01:46:42.287Z,88.70
2019-04-29T01:49:12.729Z,88.70
2019-04-29T01:51:43.141Z,87.80
2019-04-29T01:54:13.647Z,89.60
2019-04-29T01:56:44.043Z,89.20
2019-04-29T01:59:14.421Z,89.90
2019-04-29T02:01:44.997Z,89.50
2019-04-29T02:04:15.384Z,89.80
2019-04-29T02:06:45.856Z,88.70
2019-04-29T02:09:17.894Z,89.10
2019-04-29T02:11:48.321Z,88.40
2019-04-29T02:14:18.762Z,88.00
2019-04-29T02:16:49.200Z,88.10
2019-04-29T02:19:19.571Z,88.50
2019-04-29T02:22:09.682Z,88.60
2019-04-29T02:24:51.312Z,89.60
2019-04-29T02:27:21.886Z,89.50
2019-04-29T02:29:52.279Z,89.90
2019-04-29T02:32:22.693Z,89.40
2019-04-29T02:34:57.299Z,89.90
2019-04-29T02:37:32.362Z,89.30
2019-04-29T02:40:05.427Z,87.40
2019-04-29T02:42:37.541Z,87.40
2019-04-29T02:45:13.167Z,88.90
2019-04-29T02:47:45.105Z,89.20
2019-04-29T02:50:15.705Z,89.80
2019-04-29T02:52:46.270Z,90.20
2019-04-29T02:55:21.271Z,90.30
2019-04-29T02:57:59.088Z,90.60
2019-04-29T03:00:31.152Z,90.40
2019-04-29T03:03:09.163Z,90.60
2019-04-29T03:05:41.411Z,90.50
2019-04-29T03:08:15.245Z,90.30
2019-04-29T03:10:45.307Z,90.50
2019-04-29T03:13:17.876Z,91.10
2019-04-29T03:15:50.055Z,90.40
2019-04-29T03:18:22.263Z,90.60
2019-04-29T03:20:57.401Z,91.30
2019-04-29T03:23:28.046Z,91.20
2019-04-29T03:25:58.605Z,90.90
2019-04-29T03:28:29.116Z,90.80
2019-04-29T03:30:59.605Z,90.70
2019-04-29T03:33:30.134Z,91.00
2019-04-29T03:36:00.678Z,90.70
2019-04-29T03:38:31.377Z,90.20
2019-04-29T03:41:03.811Z,89.20
2019-04-29T03:43:34.290Z,89.20
2019-04-29T03:48:03.320Z,88.00
2019-04-29T03:49:17.218Z,87.40
2019-04-29T03:51:49.492Z,84.40
2019-04-29T03:54:21.167Z,83.20
2019-04-29T03:56:52.870Z,81.00
2019-04-29T03:59:23.306Z,78.90
2019-04-29T04:02:12.076Z,74.00
2019-04-29T04:05:00.649Z,70.20
2019-04-29T04:07:32.643Z,64.90
2019-04-29T04:10:03.146Z,61.50
2019-04-29T04:12:33.677Z,60.20
2019-04-29T04:15:06.461Z,59.80
2019-04-29T04:17:51.640Z,59.70
2019-04-29T04:20:22.570Z,58.90
2019-04-29T04:22:55.371Z,56.40
2019-04-29T04:25:27.511Z,55.50
2019-04-29T04:27:58.334Z,54.50
2019-04-29T04:30:28.812Z,55.00
2019-04-29T04:32:59.368Z,53.30
2019-04-29T04:35:34.343Z,53.70
2019-04-29T04:38:06.357Z,54.80
2019-04-29T04:40:41.442Z,53.80
2019-04-29T04:43:12.017Z,54.10
2019-04-29T04:45:42.453Z,53.90
2019-04-29T04:48:14.406Z,54.10
2019-04-29T04:50:44.921Z,53.60
2019-04-29T04:53:15.479Z,53.30
2019-04-29T04:55:47.488Z,52.10
2019-04-29T04:58:17.973Z,52.60
2019-04-29T05:00:48.343Z,53.00
2019-04-29T05:03:18.805Z,51.50
2019-04-29T05:05:50.559Z,51.40
2019-04-29T05:08:21.251Z,51.40
2019-04-29T05:10:51.889Z,50.40
2019-04-29T05:13:28.508Z,49.80
2019-04-29T05:15:58.117Z,49.50
2019-04-29T05:18:34.285Z,49.50
2019-04-29T05:21:04.857Z,49.10
2019-04-29T05:23:35.294Z,48.90
2019-04-29T05:26:05.678Z,49.00
2019-04-29T05:28:37.327Z,48.30
2019-04-29T05:31:07.756Z,49.90
2019-04-29T05:33:38.232Z,51.90
2019-04-29T05:36:13.530Z,53.40
2019-04-29T05:38:54.863Z,51.30
2019-04-29T05:41:25.426Z,50.20
2019-04-29T05:44:00.572Z,49.50
2019-04-29T05:46:32.775Z,51.00
2019-04-29T05:49:07.161Z,54.00
2019-04-29T05:51:43.032Z,55.90
2019-04-29T05:54:17.731Z,56.10
2019-04-29T05:56:49.767Z,54.90
2019-04-29T05:59:31.824Z,55.20
2019-04-29T06:07:16.846Z,58.50
2019-04-29T06:09:34.915Z,58.30
2019-04-29T06:12:29.364Z,58.60
2019-04-29T06:15:03.343Z,58.80
2019-04-29T06:17:46.350Z,58.40
2019-04-29T06:20:32.326Z,60.00
2019-04-29T06:23:23.190Z,60.50
2019-04-29T06:25:54.166Z,63.10
2019-04-29T06:28:26.350Z,62.60
2019-04-29T06:30:58.919Z,61.30
2019-04-29T06:33:30.967Z,61.10
2019-04-29T06:36:01.420Z,61.00
2019-04-29T06:38:31.822Z,60.60
2019-04-29T06:41:05.448Z,60.20
2019-04-29T06:43:34.213Z,62.20
2019-04-29T06:46:04.952Z,62.80
2019-04-29T06:48:35.338Z,62.00
2019-04-29T06:52:11.486Z,62.00
2019-04-29T06:54:48.324Z,61.80
2019-04-29T06:57:25.342Z,61.60
2019-04-29T06:59:59.098Z,61.80
2019-04-29T07:02:45.528Z,61.80
2019-04-29T07:05:19.202Z,61.90
2019-04-29T07:07:53.878Z,61.90
2019-04-29T07:10:29.482Z,62.40
2019-04-29T07:13:07.459Z,63.50
2019-04-29T07:15:37.964Z,63.10
2019-04-29T07:18:11.442Z,63.80
2019-04-29T07:20:44.713Z,64.20
2019-04-29T07:23:35.264Z,62.90
2019-04-29T07:26:05.286Z,62.90
2019-04-29T07:28:36.152Z,63.60
2019-04-29T07:31:10.031Z,65.30
2019-04-29T07:33:39.403Z,67.10
2019-04-29T07:36:11.282Z,66.40
2019-04-29T07:38:46.257Z,68.30
2019-04-29T07:41:18.457Z,67.30
2019-04-29T07:43:46.207Z,67.40
2019-04-29T07:46:21.346Z,67.30
2019-04-29T07:49:01.502Z,66.70
2019-04-29T07:51:24.052Z,66.30
2019-04-29T07:53:54.392Z,67.00
2019-04-29T07:56:24.799Z,67.20
2019-04-29T07:58:58.986Z,67.80
2019-04-29T08:01:27.218Z,68.40
2019-04-29T08:03:57.554Z,68.50
2019-04-29T08:06:28.435Z,67.70
2019-04-29T08:09:07.052Z,67.40
2019-04-29T08:11:38.820Z,66.20
2019-04-29T08:17:42.940Z,66.00
2019-04-29T08:20:14.917Z,65.00
2019-04-29T08:22:45.681Z,65.30
2019-04-29T08:25:16.062Z,65.90
2019-04-29T08:27:50.822Z,65.60
2019-04-29T08:30:22.928Z,65.90
2019-04-29T08:32:53.618Z,67.60
2019-04-29T08:35:24.124Z,68.70
2019-04-29T08:37:54.668Z,69.20
2019-04-29T08:40:27.994Z,69.80
2019-04-29T08:43:00.040Z,69.90
2019-04-29T08:45:39.007Z,70.10
2019-04-29T08:48:13.808Z,72.00
2019-04-29T08:50:44.295Z,72.70
2019-04-29T08:53:14.844Z,74.10
2019-04-29T08:55:45.229Z,76.50
2019-04-29T08:58:15.936Z,77.50
2019-04-29T09:00:46.490Z,77.90
2019-04-29T09:03:18.860Z,78.00
2019-04-29T09:06:04.282Z,78.60
2019-04-29T09:08:21.277Z,79.10
2019-04-29T09:10:51.766Z,79.60
2019-04-29T09:13:22.230Z,80.00
2019-04-29T09:15:52.652Z,81.50
2019-04-29T09:18:23.077Z,81.90
2019-04-29T09:20:53.447Z,82.30
2019-04-29T09:23:34.442Z,82.70
2019-04-29T09:26:15.786Z,83.20
2019-04-29T09:28:49.599Z,82.90
2019-04-29T09:31:18.791Z,84.50
2019-04-29T09:33:51.009Z,84.90
2019-04-29T09:36:22.970Z,85.90
2019-04-29T09:38:53.401Z,86.60
2019-04-29T09:41:35.028Z,87.20
2019-04-29T09:44:07.698Z,86.60
2019-04-29T09:46:38.061Z,87.30
2019-04-29T09:49:17.458Z,87.90
2019-04-29T09:51:47.986Z,87.80
2019-04-29T09:54:21.086Z,87.20
2019-04-29T09:56:51.587Z,88.90
2019-04-29T09:59:23.619Z,90.70
2019-04-29T10:02:10.967Z,93.40
2019-04-29T10:04:56.443Z,96.30
2019-04-29T10:07:18.031Z,99.00
2019-04-29T10:09:56.951Z,99.90
2019-04-29T10:12:21.020Z,99.90
2019-04-29T10:14:51.648Z,99.90
2019-04-29T10:17:29.753Z,99.90
2019-04-29T10:20:01.884Z,99.90
2019-04-29T10:22:32.527Z,99.90
2019-04-29T10:25:03.022Z,99.40
2019-04-29T10:27:33.527Z,97.40
2019-04-29T10:30:08.460Z,95.10
2019-04-29T10:32:42.500Z,94.90
2019-04-29T10:35:11.390Z,95.10
2019-04-29T10:37:43.827Z,93.50
2019-04-29T10:40:27.601Z,93.60
2019-04-29T10:42:59.621Z,93.70
2019-04-29T10:45:48.017Z,94.90
2019-04-29T10:48:23.914Z,94.50
2019-04-29T10:50:58.758Z,96.00
2019-04-29T10:53:29.164Z,97.10
2019-04-29T10:56:00.990Z,97.40
2019-04-29T10:58:35.680Z,97.80
2019-04-29T11:01:29.202Z,97.80
2019-04-29T11:04:00.708Z,98.20
2019-04-29T11:06:31.550Z,98.70
2019-04-29T11:09:14.334Z,98.80
2019-04-29T11:11:46.075Z,99.30
2019-04-29T11:14:16.641Z,99.30
2019-04-29T11:16:47.940Z,99.60
2019-04-29T11:19:18.352Z,99.90
2019-04-29T11:21:49.060Z,99.80
2019-04-29T11:24:21.181Z,99.40
2019-04-29T11:26:53.268Z,99.60
2019-04-29T11:29:27.344Z,99.40
2019-04-29T11:31:57.562Z,99.90
2019-04-29T11:34:35.863Z,99.90
2019-04-29T11:37:13.738Z,99.90
2019-04-29T11:39:46.090Z,99.90
2019-04-29T11:42:15.018Z,99.90
2019-04-29T11:44:45.414Z,99.90
2019-04-29T11:47:15.903Z,99.90
2019-04-29T11:49:51.029Z,99.90
2019-04-29T11:52:23.737Z,99.90
2019-04-29T11:54:53.812Z,99.90
2019-04-29T11:57:41.032Z,99.90
2019-04-29T12:00:23.494Z,99.90
2019-04-29T12:03:07.602Z,99.90
2019-04-29T12:05:40.096Z,99.90
2019-04-29T12:08:17.062Z,99.90
2019-04-29T12:10:48.611Z,99.90
2019-04-29T12:13:27.065Z,99.90
2019-04-29T12:15:56.490Z,99.90
2019-04-29T12:18:28.418Z,99.90
2019-04-29T12:21:06.446Z,99.90
2019-04-29T12:23:36.852Z,99.90
2019-04-29T12:26:07.627Z,99.90
2019-04-29T12:28:42.263Z,99.90
2019-04-29T12:31:34.101Z,99.90
2019-04-29T12:34:22.072Z,99.90
2019-04-29T12:36:56.825Z,99.90
2019-04-29T12:39:43.357Z,99.90
2019-04-29T12:42:24.993Z,99.90
2019-04-29T12:44:57.082Z,99.90
2019-04-29T12:47:34.887Z,99.90
2019-04-29T12:50:10.019Z,99.90
2019-04-29T12:52:40.550Z,99.90
2019-04-29T12:55:20.384Z,99.90
2019-04-29T12:57:45.601Z,99.90
2019-04-29T13:00:23.457Z,99.90
2019-04-29T13:03:11.944Z,99.90
2019-04-29T13:06:02.527Z,99.90
2019-04-29T13:08:39.728Z,99.90
2019-04-29T13:11:10.095Z,99.90
2019-04-29T13:13:40.489Z,99.90
2019-04-29T13:16:20.075Z,99.90
2019-04-29T13:19:12.241Z,99.90
2019-04-29T13:21:40.564Z,99.90
2019-04-29T13:24:22.362Z,99.90
2019-04-29T13:26:49.317Z,99.90
2019-04-29T13:29:27.422Z,99.90
2019-04-29T13:32:25.245Z,99.90
2019-04-29T13:34:50.808Z,99.90
2019-04-29T13:37:25.068Z,99.90
2019-04-29T13:39:57.825Z,99.90
2019-04-29T13:42:29.895Z,99.90
2019-04-29T13:45:12.160Z,99.90
2019-04-29T13:47:50.371Z,99.90
2019-04-29T13:50:39.972Z,99.90
2019-04-29T13:53:11.538Z,99.90
2019-04-29T13:56:09.889Z,99.90
2019-04-29T13:58:27.071Z,99.90
2019-04-29T14:01:03.707Z,99.90
2019-04-29T14:03:52.154Z,99.90
2019-04-29T14:06:24.273Z,99.90
2019-04-29T14:08:59.999Z,99.90
2019-04-29T14:11:28.553Z,99.90
2019-04-29T14:14:00.439Z,99.90
2019-04-29T14:16:33.488Z,99.90
2019-04-29T14:19:08.417Z,99.90
2019-04-29T14:21:37.382Z,99.90
2019-04-29T14:24:09.480Z,99.90
2019-04-29T14:26:42.036Z,99.90
2019-04-29T14:29:12.218Z,99.90
2019-04-29T14:31:42.629Z,99.90
2019-04-29T14:34:23.756Z,99.90
2019-04-29T14:37:18.333Z,99.90
2019-04-29T14:39:37.077Z,99.90
2019-04-29T14:42:25.661Z,99.90
2019-04-29T14:45:01.936Z,99.90
2019-04-29T14:47:34.055Z,99.90
2019-04-29T14:50:10.725Z,99.90
2019-04-29T14:52:40.276Z,99.90
2019-04-29T14:55:10.781Z,99.90
2019-04-29T14:57:41.269Z,99.90
2019-04-29T15:00:23.312Z,99.90
2019-04-29T15:02:55.907Z,99.90
2019-04-29T15:05:26.399Z,99.90
2019-04-29T15:07:59.786Z,99.90
2019-04-29T15:10:36.776Z,99.90
2019-04-29T15:13:20.657Z,99.90
2019-04-29T15:15:42.914Z,99.90
2019-04-29T15:18:38.823Z,99.90
2019-04-29T15:21:01.877Z,99.90
2019-04-29T15:23:32.962Z,99.90
2019-04-29T15:26:03.577Z,99.90
2019-04-29T15:28:35.825Z,99.90
2019-04-29T15:31:12.617Z,99.90
2019-04-29T15:33:40.925Z,99.90
2019-04-29T15:36:11.318Z,99.90
2019-04-29T15:38:41.788Z,99.90
2019-04-29T15:41:12.253Z,99.90
2019-04-29T15:43:47.842Z,99.90
2019-04-29T15:46:15.856Z,99.90
2019-04-29T15:48:46.365Z,99.90
2019-04-29T15:51:16.859Z,99.90
2019-04-29T15:53:47.487Z,99.90
2019-04-29T15:56:28.463Z,99.90
2019-04-29T15:58:50.624Z,99.90
2019-04-29T16:01:32.251Z,99.90
2019-04-29T16:04:04.655Z,99.90
2019-04-29T16:06:55.476Z,99.90
2019-04-29T16:09:50.603Z,99.90
2019-04-29T16:12:16.489Z,99.90
2019-04-29T16:14:49.140Z,99.90
2019-04-29T16:17:20.603Z,99.90
2019-04-29T16:19:51.547Z,99.90
2019-04-29T16:23:23.580Z,99.90
2019-04-29T16:25:16.928Z,99.90
2019-04-29T16:27:52.989Z,99.90
2019-04-29T16:30:20.397Z,99.90
2019-04-29T16:32:51.001Z,99.90
2019-04-29T16:35:23.659Z,99.90
2019-04-29T16:37:53.577Z,99.90
2019-04-29T16:40:25.957Z,99.90
2019-04-29T16:43:09.683Z,99.90
2019-04-29T16:45:51.667Z,99.90
2019-04-29T16:48:19.933Z,99.90
2019-04-29T16:50:50.457Z,99.90
2019-04-29T16:53:21.005Z,99.90
2019-04-29T16:55:51.377Z,99.90
2019-04-29T16:58:21.988Z,99.90
2019-04-29T17:00:54.851Z,99.90
2019-04-29T17:03:25.215Z,99.90
2019-04-29T17:05:56.592Z,99.90
2019-04-29T17:08:28.944Z,99.90
2019-04-29T17:11:01.115Z,99.90
2019-04-29T17:13:31.590Z,99.90
2019-04-29T17:16:02.117Z,99.90
2019-04-29T17:18:32.620Z,99.90
2019-04-29T17:21:07.071Z,99.90
2019-04-29T17:23:35.232Z,99.90
2019-04-29T17:26:06.496Z,99.90
2019-04-29T17:28:47.506Z,99.90
2019-04-29T17:31:20.181Z,99.90
2019-04-29T17:33:59.809Z,99.90
2019-04-29T17:36:33.519Z,99.90
2019-04-29T17:39:07.806Z,99.90
2019-04-29T17:41:38.282Z,99.90
2019-04-29T17:44:18.776Z,99.90
2019-04-29T17:46:59.433Z,99.90
2019-04-29T17:49:34.436Z,99.90
2019-04-29T17:52:06.765Z,99.90
2019-04-29T17:54:40.275Z,99.90
2019-04-29T17:57:27.832Z,99.90
2019-04-29T17:59:48.910Z,99.90
2019-04-29T18:02:35.978Z,99.90
2019-04-29T18:05:20.747Z,99.90
2019-04-29T18:08:05.318Z,99.90
2019-04-29T18:10:40.316Z,99.90
2019-04-29T18:13:12.343Z,99.90
2019-04-29T18:16:00.081Z,99.90
2019-04-29T18:18:21.537Z,99.90
2019-04-29T18:21:09.939Z,99.90
2019-04-29T18:24:01.475Z,99.90
2019-04-29T18:26:35.718Z,99.90
2019-04-29T18:29:08.159Z,99.90
2019-04-29T18:38:07.483Z,99.90
2019-04-29T18:40:41.877Z,99.90
2019-04-29T18:43:10.872Z,99.90
2019-04-29T18:45:53.022Z,99.90
2019-04-29T18:48:31.721Z,99.90
2019-04-29T18:51:05.624Z,99.90
2019-04-29T18:53:39.127Z,99.90
2019-04-29T18:56:14.900Z,99.90
2019-04-29T18:58:50.444Z,99.90
2019-04-29T19:01:24.138Z,99.90
2019-04-29T19:03:58.510Z,99.90
2019-04-29T19:06:33.452Z,99.90
2019-04-29T19:09:17.192Z,99.90
2019-04-29T19:11:37.705Z,99.90
2019-04-29T19:14:08.208Z,99.90
2019-04-29T19:16:39.537Z,99.90
2019-04-29T19:19:15.379Z,99.90
2019-04-29T19:21:47.483Z,99.90
2019-04-29T19:24:18.447Z,99.90
2019-04-29T19:26:48.889Z,99.90
2019-04-29T19:29:19.667Z,99.90
2019-04-29T19:31:50.092Z,99.90
2019-04-29T19:34:20.707Z,99.90
2019-04-29T19:36:55.767Z,99.90
2019-04-29T19:39:25.148Z,99.90
2019-04-29T19:41:55.738Z,99.90
2019-04-29T19:44:33.311Z,99.90
2019-04-29T19:46:59.120Z,99.90
2019-04-29T19:49:29.884Z,99.90
2019-04-29T19:52:01.909Z,99.90
2019-04-29T19:54:32.461Z,99.90
2019-04-29T19:57:06.138Z,99.90
2019-04-29T19:59:36.589Z,99.90
2019-04-29T20:02:11.151Z,99.90
2019-04-29T20:04:54.161Z,99.90
2019-04-29T20:07:27.389Z,99.90
2019-04-29T20:10:03.909Z,99.90
2019-04-29T20:12:31.095Z,99.90
2019-04-29T20:15:02.688Z,99.90
2019-04-29T20:17:38.534Z,99.90
2019-04-29T20:20:10.995Z,99.90
2019-04-29T20:22:43.518Z,99.90
2019-04-29T20:25:13.828Z,99.90
2019-04-29T20:27:45.858Z,99.90
2019-04-29T20:30:20.730Z,99.90
2019-04-29T20:32:49.331Z,99.90
2019-04-29T20:35:19.875Z,99.90
2019-04-29T20:37:55.459Z,99.90
2019-04-29T20:40:22.566Z,99.90
2019-04-29T20:42:53.115Z,99.90
2019-04-29T20:45:27.282Z,99.90
2019-04-29T20:47:56.207Z,99.90
2019-04-29T20:50:27.190Z,99.90
2019-04-29T20:53:02.254Z,99.90
2019-04-29T20:55:35.912Z,99.90
2019-04-29T20:58:06.383Z,99.90
2019-04-29T21:00:37.852Z,99.90
2019-04-29T21:03:09.487Z,99.90
2019-04-29T21:05:49.602Z,99.90
2019-04-29T21:08:16.339Z,99.90
2019-04-29T21:10:48.224Z,99.90
2019-04-29T21:13:22.149Z,99.90
2019-04-29T21:16:06.811Z,99.90
2019-04-29T21:18:38.831Z,99.90
2019-04-29T21:21:11.374Z,99.90
2019-04-29T21:23:45.748Z,99.90
2019-04-29T21:26:16.603Z,99.90
2019-04-29T21:28:55.545Z,99.90
2019-04-29T21:31:25.834Z,99.90
2019-04-29T21:34:05.514Z,99.90
2019-04-29T21:36:55.837Z,99.90
2019-04-29T21:39:44.641Z,99.90
2019-04-29T21:42:36.988Z,99.90
2019-04-29T21:45:12.120Z,99.90
2019-04-29T21:47:51.825Z,99.90
2019-04-29T21:50:17.259Z,99.90
2019-04-29T21:52:48.178Z,99.90
2019-04-29T21:55:24.876Z,99.90
2019-04-29T21:57:54.510Z,99.90
2019-04-29T22:00:28.527Z,99.90
2019-04-29T22:03:05.337Z,99.90
2019-04-29T22:05:37.717Z,99.90
2019-04-29T22:08:08.381Z,99.90
2019-04-29T22:10:38.965Z,99.90
2019-04-29T22:13:09.798Z,99.90
2019-04-29T22:15:42.421Z,99.90
2019-04-29T22:18:13.949Z,99.90
2019-04-29T22:20:44.528Z,99.90
2019-04-29T22:23:17.159Z,99.90
2019-04-29T22:25:47.298Z,99.90
2019-04-29T22:28:19.711Z,99.90
2019-04-29T22:30:54.694Z,99.90
2019-04-29T22:33:22.157Z,99.90
2019-04-29T22:35:52.540Z,99.90
2019-04-29T22:38:24.854Z,99.90
2019-04-29T22:40:56.639Z,99.90
2019-04-29T22:43:44.642Z,99.90
2019-04-29T22:46:17.533Z,99.90
2019-04-29T22:48:48.858Z,99.90
2019-04-29T22:51:19.465Z,99.90
2019-04-29T22:53:50.051Z,99.90
2019-04-29T22:56:20.490Z,99.90
2019-04-29T22:58:51.796Z,99.90
2019-04-29T23:01:22.243Z,99.90
2019-04-29T23:03:52.727Z,99.90
2019-04-29T23:06:23.290Z,99.90
2019-04-29T23:08:53.726Z,99.90
2019-04-29T23:11:24.257Z,99.90
2019-04-29T23:13:55.435Z,99.90
2019-04-29T23:16:26.172Z,99.90
2019-04-29T23:18:56.763Z,99.90
2019-04-29T23:21:43.397Z,99.90
2019-04-29T23:24:17.295Z,99.90
2019-04-29T23:26:47.173Z,99.90
2019-04-29T23:29:17.565Z,99.90
2019-04-29T23:31:48.088Z,99.90
2019-04-29T23:34:18.578Z,99.90
2019-04-29T23:36:50.169Z,99.90
2019-04-29T23:39:20.672Z,99.90
2019-04-29T23:41:51.004Z,99.90
2019-04-29T23:44:21.467Z,99.90
2019-04-29T23:46:51.881Z,99.90
2019-04-29T23:49:22.380Z,99.90
2019-04-29T23:51:52.828Z,99.90
2019-04-29T23:54:25.184Z,99.90
2019-04-29T23:57:03.109Z,99.90
2019-04-29T23:59:57.200Z,99.90
